Time;durP1;ratioP1;P1;durP2;ratioP2;P2;SDS_P1;SDS_P2;PMS_P1;PMS_P2;Temp;Humidity;BMP_temperature;BMP_pressure;BME280_temperature;BME280_humidity;BME280_pressure;Samples;Min_cycle;Max_cycle;Signal;HPM_P1;HPM_P2
2022/06/16 00:00:33;;;;;;;3.57;2.70;;;14.40;99.90;;;;;;5055527;28;20394;-71
2022/06/16 00:02:59;;;;;;;6.00;2.30;;;14.40;99.90;;;;;;5055667;28;20567;-70
2022/06/16 00:05:29;;;;;;;2.23;2.03;;;14.40;99.90;;;;;;5055535;28;20480;-71
2022/06/16 00:07:55;;;;;;;5.17;1.87;;;14.40;99.90;;;;;;5054514;28;20885;-71
2022/06/16 00:10:22;;;;;;;1.97;1.87;;;14.50;99.90;;;;;;5055446;28;20822;-72
2022/06/16 00:12:48;;;;;;;1.73;1.63;;;14.40;99.90;;;;;;5055256;28;20500;-70
2022/06/16 00:15:18;;;;;;;3.50;2.20;;;14.50;99.90;;;;;;5054596;28;20393;-72
2022/06/16 00:17:43;;;;;;;4.63;2.30;;;14.50;99.90;;;;;;5054465;28;20373;-72
2022/06/16 00:20:11;;;;;;;6.00;2.00;;;14.50;99.90;;;;;;5055200;28;20445;-72
2022/06/16 00:22:37;;;;;;;2.70;1.63;;;14.50;99.90;;;;;;5055165;28;20171;-72
2022/06/16 00:25:05;;;;;;;4.07;1.77;;;14.40;99.90;;;;;;5055063;28;20733;-72
2022/06/16 00:27:31;;;;;;;4.17;1.87;;;14.40;99.90;;;;;;5054295;28;20893;-72
2022/06/16 00:29:57;;;;;;;2.30;2.10;;;14.40;99.90;;;;;;5054915;28;20403;-72
2022/06/16 00:32:22;;;;;;;4.73;1.90;;;14.30;99.90;;;;;;5054086;28;20655;-71
2022/06/16 00:34:48;;;;;;;3.83;2.13;;;14.30;99.90;;;;;;5054927;28;20405;-72
2022/06/16 00:37:14;;;;;;;7.80;2.03;;;14.30;99.90;;;;;;5053997;28;20166;-72
2022/06/16 00:39:40;;;;;;;2.97;2.60;;;14.30;99.90;;;;;;5054867;28;20187;-72
2022/06/16 00:42:19;;;;;;;2.83;2.17;;;14.30;99.90;;;;;;5054822;28;20417;-72
2022/06/16 00:44:50;;;;;;;2.13;2.00;;;14.30;99.90;;;;;;5036644;28;20635;-72
2022/06/16 00:47:18;;;;;;;1.80;1.70;;;14.20;99.90;;;;;;5053029;28;20394;-72
2022/06/16 00:49:45;;;;;;;2.07;1.87;;;14.20;99.90;;;;;;5054339;28;20437;-71
2022/06/16 00:52:24;;;;;;;3.60;2.47;;;14.20;99.90;;;;;;5054000;28;20760;-70
2022/06/16 00:54:54;;;;;;;3.30;2.10;;;14.30;99.90;;;;;;5054493;28;20468;-72
2022/06/16 00:57:26;;;;;;;2.00;1.90;;;14.20;99.90;;;;;;5053560;28;20394;-71
2022/06/16 00:59:52;;;;;;;2.10;2.00;;;14.20;99.90;;;;;;5054443;28;20423;-70
2022/06/16 01:02:18;;;;;;;2.80;2.40;;;14.20;99.90;;;;;;5054525;28;20495;-72
2022/06/16 01:04:53;;;;;;;2.33;2.17;;;14.20;99.90;;;;;;5054485;28;20167;-70
2022/06/16 01:07:29;;;;;;;3.93;2.50;;;14.10;99.90;;;;;;5053367;28;20449;-71
2022/06/16 01:09:56;;;;;;;2.60;1.93;;;14.10;99.90;;;;;;5053379;28;20407;-71
2022/06/16 01:15:23;;;;;;;2.20;2.10;;;14.00;99.90;;;;;;5054035;28;20455;-70
2022/06/16 01:18:12;;;;;;;3.93;2.17;;;14.00;99.90;;;;;;5053077;28;20404;-72
2022/06/16 01:21:10;;;;;;;4.17;2.20;;;14.10;99.90;;;;;;5036439;28;20413;-72
2022/06/16 01:24:12;;;;;;;3.30;2.20;;;14.00;99.90;;;;;;5054130;28;20393;-72
2022/06/16 01:26:49;;;;;;;1.70;1.60;;;14.10;99.90;;;;;;5052517;28;20496;-72
2022/06/16 01:29:18;;;;;;;6.30;2.57;;;14.10;99.90;;;;;;5053466;28;20444;-71
2022/06/16 01:31:54;;;;;;;2.67;2.47;;;14.00;99.90;;;;;;5053996;28;20376;-71
2022/06/16 01:34:42;;;;;;;2.10;2.00;;;13.90;99.90;;;;;;5053880;28;20384;-71
2022/06/16 01:37:33;;;;;;;2.50;2.30;;;13.90;99.90;;;;;;5015263;28;20428;-72
2022/06/16 01:40:07;;;;;;;2.23;1.97;;;13.90;99.90;;;;;;5053677;28;20392;-70
2022/06/16 01:42:45;;;;;;;3.07;2.80;;;14.00;99.90;;;;;;5035836;28;20806;-70
2022/06/16 01:45:30;;;;;;;4.70;2.30;;;14.00;99.90;;;;;;5053620;28;20364;-71
2022/06/16 01:47:57;;;;;;;2.20;2.00;;;14.00;99.90;;;;;;5051678;28;20498;-72
2022/06/16 01:50:53;;;;;;;2.73;2.33;;;14.00;99.90;;;;;;5035720;28;20957;-72
2022/06/16 01:53:28;;;;;;;5.63;3.60;;;14.00;99.90;;;;;;5022367;28;20539;-70
2022/06/16 01:56:04;;;;;;;3.10;2.27;;;14.00;99.90;;;;;;5053461;28;20368;-71
2022/06/16 01:58:35;;;;;;;2.80;2.60;;;14.00;99.90;;;;;;5052221;28;20425;-72
2022/06/16 02:01:05;;;;;;;3.60;2.77;;;14.00;99.90;;;;;;5053550;28;20380;-71
2022/06/16 02:03:38;;;;;;;2.70;2.50;;;14.00;99.90;;;;;;5053220;28;20405;-71
2022/06/16 02:06:15;;;;;;;2.73;2.53;;;14.00;99.90;;;;;;5052515;28;20409;-70
2022/06/16 02:08:46;;;;;;;5.13;3.17;;;14.00;99.90;;;;;;5052471;28;20959;-72
2022/06/16 02:11:32;;;;;;;3.33;2.63;;;14.00;99.90;;;;;;5035156;28;20463;-72
2022/06/16 02:14:18;;;;;;;3.30;3.00;;;14.00;99.90;;;;;;5053067;28;20431;-71
2022/06/16 02:16:45;;;;;;;3.30;2.60;;;14.10;99.90;;;;;;5052189;28;20440;-72
2022/06/16 02:19:15;;;;;;;2.90;2.40;;;14.10;99.90;;;;;;5053036;28;20384;-70
2022/06/16 02:21:45;;;;;;;3.30;3.00;;;14.00;99.90;;;;;;5035164;28;20910;-71
2022/06/16 02:24:13;;;;;;;3.80;2.60;;;14.00;99.90;;;;;;5053080;28;20735;-72
2022/06/16 02:26:39;;;;;;;2.77;2.53;;;14.00;99.90;;;;;;5051290;28;20401;-70
2022/06/16 02:29:33;;;;;;;4.03;2.60;;;14.00;99.90;;;;;;5052940;28;20461;-72
2022/06/16 02:32:14;;;;;;;3.10;2.50;;;13.90;99.90;;;;;;5052843;28;20401;-72
2022/06/16 02:35:17;;;;;;;3.47;2.63;;;13.90;99.90;;;;;;5052937;28;20397;-72
2022/06/16 02:37:46;;;;;;;4.10;3.00;;;13.80;99.90;;;;;;5051968;28;20379;-71
2022/06/16 02:40:46;;;;;;;2.70;2.50;;;13.80;99.90;;;;;;5052934;28;20397;-72
2022/06/16 02:43:44;;;;;;;6.20;3.03;;;13.70;99.90;;;;;;5052825;28;20448;-72
2022/06/16 02:46:21;;;;;;;3.83;2.47;;;13.70;99.90;;;;;;5051943;28;20873;-71
2022/06/16 02:48:58;;;;;;;3.00;2.80;;;13.70;99.90;;;;;;5052050;28;20444;-71
2022/06/16 02:51:28;;;;;;;2.97;2.50;;;13.70;99.90;;;;;;5052767;28;20408;-72
2022/06/16 02:54:24;;;;;;;3.13;2.53;;;13.70;99.90;;;;;;5052567;28;20502;-72
2022/06/16 02:56:56;;;;;;;4.23;3.00;;;13.60;99.90;;;;;;5033522;28;20413;-70
2022/06/16 02:59:49;;;;;;;5.93;3.20;;;13.60;99.90;;;;;;5052580;28;20421;-71
2022/06/16 03:02:21;;;;;;;3.67;2.50;;;13.60;99.90;;;;;;5049690;28;20421;-72
2022/06/16 03:04:50;;;;;;;2.93;2.53;;;13.60;99.90;;;;;;5052328;28;20372;-72
2022/06/16 03:07:17;;;;;;;4.03;2.70;;;13.50;99.90;;;;;;5051191;28;20376;-72
2022/06/16 03:09:43;;;;;;;6.10;3.30;;;13.50;99.90;;;;;;5054705;28;20392;-71
2022/06/16 03:12:11;;;;;;;4.10;3.00;;;13.50;99.90;;;;;;5056403;28;20380;-71
2022/06/16 03:14:37;;;;;;;4.13;2.70;;;13.50;99.90;;;;;;5056414;28;20459;-72
2022/06/16 03:17:04;;;;;;;4.43;2.73;;;13.50;99.90;;;;;;5055564;28;20405;-72
2022/06/16 03:19:30;;;;;;;3.70;3.40;;;13.50;99.90;;;;;;5056417;28;20492;-71
2022/06/16 03:21:56;;;;;;;3.13;2.93;;;13.50;99.90;;;;;;5056392;28;20810;-71
2022/06/16 03:24:22;;;;;;;3.47;2.70;;;13.40;99.90;;;;;;5056074;28;20492;-71
2022/06/16 03:26:48;;;;;;;3.30;2.50;;;13.50;99.90;;;;;;5054634;28;20398;-71
2022/06/16 03:29:14;;;;;;;3.90;2.70;;;13.50;99.90;;;;;;5056139;28;20864;-71
2022/06/16 03:31:40;;;;;;;4.27;3.00;;;13.50;99.90;;;;;;5056209;28;20375;-70
2022/06/16 03:34:06;;;;;;;3.00;2.70;;;13.60;99.90;;;;;;5056042;28;20594;-72
2022/06/16 03:36:35;;;;;;;6.33;2.50;;;13.60;99.90;;;;;;5055190;28;20409;-71
2022/06/16 03:39:03;;;;;;;3.40;2.60;;;13.60;99.90;;;;;;5056118;28;20612;-70
2022/06/16 03:41:29;;;;;;;3.90;2.77;;;13.60;99.90;;;;;;5055958;28;20436;-71
2022/06/16 03:43:54;;;;;;;4.80;2.73;;;13.70;99.90;;;;;;5055175;28;20428;-71
2022/06/16 03:46:20;;;;;;;2.77;2.47;;;13.70;99.90;;;;;;5055546;28;20186;-72
2022/06/16 03:48:46;;;;;;;4.37;2.80;;;13.70;99.90;;;;;;5055076;28;20206;-72
2022/06/16 03:51:12;;;;;;;2.87;2.67;;;13.70;99.90;;;;;;5055834;28;20904;-70
2022/06/16 03:53:39;;;;;;;3.77;2.30;;;13.80;99.90;;;;;;5055812;28;20284;-70
2022/06/16 03:56:05;;;;;;;5.90;2.67;;;13.80;1.00;;;;;;5055665;28;20806;-71
2022/06/16 03:58:31;;;;;;;3.40;2.73;;;13.80;1.00;;;;;;5054626;28;20413;-71
2022/06/16 04:00:56;;;;;;;3.30;2.53;;;13.90;1.00;;;;;;5054753;28;20437;-72
2022/06/16 04:06:08;;;;;;;3.10;2.50;;;13.90;1.00;;;;;;5055577;28;20178;-72
2022/06/16 04:08:33;;;;;;;4.70;2.40;;;13.90;1.00;;;;;;5054413;28;20418;-72
2022/06/16 04:11:26;;;;;;;3.10;2.70;;;13.90;1.00;;;;;;5055632;28;20994;-72
2022/06/16 04:13:45;;;;;;;3.33;2.60;;;13.90;1.00;;;;;;5055169;28;20671;-71
2022/06/16 04:16:10;;;;;;;3.00;2.80;;;13.80;1.00;;;;;;5055252;28;20416;-72
2022/06/16 04:18:36;;;;;;;3.27;2.97;;;13.80;1.00;;;;;;5036020;28;20182;-71
2022/06/16 04:21:02;;;;;;;3.80;2.67;;;13.70;1.00;;;;;;5037117;28;20195;-71
2022/06/16 04:23:27;;;;;;;3.37;3.07;;;13.70;1.00;;;;;;5055255;28;20170;-72
2022/06/16 04:25:53;;;;;;;3.70;3.00;;;13.70;1.00;;;;;;5055201;28;20171;-70
2022/06/16 04:28:19;;;;;;;6.83;3.10;;;13.80;1.00;;;;;;5054348;28;20690;-70
2022/06/16 04:30:44;;;;;;;3.20;2.53;;;13.80;1.00;;;;;;5054916;28;20174;-72
2022/06/16 04:33:10;;;;;;;4.00;2.97;;;13.90;1.00;;;;;;5054985;28;20202;-72
2022/06/16 04:35:36;;;;;;;4.80;3.30;;;13.90;1.00;;;;;;5055069;28;20570;-72
2022/06/16 04:38:02;;;;;;;2.63;2.43;;;13.90;1.00;;;;;;5052955;28;20458;-72
2022/06/16 04:40:27;;;;;;;6.40;2.83;;;14.00;1.00;;;;;;5054994;28;20516;-72
2022/06/16 04:42:53;;;;;;;5.93;2.50;;;14.00;1.00;;;;;;5054882;28;20174;-70
2022/06/16 04:45:19;;;;;;;2.73;2.37;;;14.10;1.00;;;;;;5054865;28;20163;-72
2022/06/16 04:47:45;;;;;;;2.53;2.40;;;14.20;1.00;;;;;;5053895;28;20631;-71
2022/06/16 04:50:14;;;;;;;3.27;2.97;;;14.20;1.00;;;;;;5054687;28;20802;-72
2022/06/16 04:52:40;;;;;;;8.73;4.67;;;14.30;1.00;;;;;;5054479;28;20193;-70
2022/06/16 04:55:06;;;;;;;3.00;2.70;;;14.30;1.00;;;;;;5054445;28;20930;-70
2022/06/16 04:57:34;;;;;;;3.10;2.80;;;14.30;1.00;;;;;;5053232;28;20174;-67
2022/06/16 04:59:59;;;;;;;5.23;2.87;;;14.40;1.00;;;;;;5054711;28;20457;-71
2022/06/16 05:02:25;;;;;;;3.53;2.60;;;14.50;99.90;;;;;;5054600;28;20465;-71
2022/06/16 05:04:51;;;;;;;2.87;2.60;;;14.50;99.90;;;;;;5054401;28;20174;-67
2022/06/16 05:07:16;;;;;;;3.73;3.23;;;14.50;99.90;;;;;;5053492;28;20638;-72
2022/06/16 05:09:42;;;;;;;3.70;2.30;;;14.60;99.90;;;;;;5054311;28;20207;-72
2022/06/16 05:12:08;;;;;;;5.33;3.07;;;14.60;99.90;;;;;;5053799;28;20167;-71
2022/06/16 05:14:34;;;;;;;4.00;2.90;;;14.70;99.90;;;;;;5053727;28;20305;-72
2022/06/16 05:16:59;;;;;;;3.27;2.50;;;14.70;99.90;;;;;;5053344;28;20436;-72
2022/06/16 05:19:30;;;;;;;6.27;3.53;;;14.80;99.90;;;;;;5036127;28;20601;-69
2022/06/16 05:21:56;;;;;;;2.90;2.50;;;14.80;99.90;;;;;;5054066;28;20163;-69
2022/06/16 05:24:21;;;;;;;2.73;2.53;;;14.80;99.90;;;;;;5054071;28;20412;-69
2022/06/16 05:26:47;;;;;;;2.73;2.53;;;14.80;99.90;;;;;;5053044;28;20167;-69
2022/06/16 05:29:12;;;;;;;3.63;2.67;;;14.80;99.90;;;;;;5053749;28;20648;-72
2022/06/16 05:31:38;;;;;;;2.90;2.53;;;14.80;99.90;;;;;;5052455;28;20171;-72
2022/06/16 05:34:04;;;;;;;2.33;2.13;;;14.80;99.90;;;;;;5035795;28;20194;-72
2022/06/16 05:36:30;;;;;;;3.13;2.57;;;14.80;99.90;;;;;;5035076;28;20233;-71
2022/06/16 05:38:55;;;;;;;4.20;2.97;;;14.90;99.90;;;;;;5053835;28;20186;-69
2022/06/16 05:41:21;;;;;;;2.53;2.13;;;15.00;99.90;;;;;;5053675;28;20524;-70
2022/06/16 05:43:47;;;;;;;2.93;2.73;;;14.90;99.90;;;;;;5053719;28;20224;-70
2022/06/16 05:46:19;;;;;;;3.33;3.10;;;14.90;99.90;;;;;;5053632;28;20175;-71
2022/06/16 05:48:45;;;;;;;5.50;2.70;;;14.90;99.90;;;;;;5052724;28;20206;-69
2022/06/16 05:51:14;;;;;;;5.23;2.87;;;14.90;99.90;;;;;;5052593;28;20543;-70
2022/06/16 05:53:41;;;;;;;2.60;2.40;;;14.80;99.90;;;;;;5053541;28;20506;-72
2022/06/16 05:56:07;;;;;;;7.00;2.80;;;14.80;99.90;;;;;;5053372;28;20411;-72
2022/06/16 05:58:33;;;;;;;3.47;2.40;;;14.80;99.90;;;;;;5034531;28;20421;-69
2022/06/16 06:00:59;;;;;;;3.63;2.27;;;14.90;99.90;;;;;;5053423;28;20855;-71
2022/06/16 06:03:25;;;;;;;2.70;2.50;;;14.80;99.90;;;;;;5053102;28;20496;-72
2022/06/16 06:05:51;;;;;;;3.17;2.30;;;14.70;99.90;;;;;;5053176;28;20169;-69
2022/06/16 06:16:38;;;;;;;2.60;2.40;;;14.80;99.90;;;;;;5052223;28;20476;-72
2022/06/16 06:19:28;;;;;;;2.83;2.53;;;14.80;99.90;;;;;;5053052;28;20400;-71
2022/06/16 06:22:11;;;;;;;2.97;2.67;;;14.90;99.90;;;;;;5052934;28;20437;-71
2022/06/16 06:24:42;;;;;;;3.47;2.60;;;15.00;99.90;;;;;;5052901;28;20397;-70
2022/06/16 06:27:32;;;;;;;6.60;2.70;;;15.00;99.90;;;;;;5051299;28;20430;-72
2022/06/16 06:29:58;;;;;;;2.50;2.30;;;15.10;99.90;;;;;;5052894;28;20417;-70
2022/06/16 06:32:25;;;;;;;6.07;2.93;;;15.00;99.90;;;;;;5052839;28;20475;-71
2022/06/16 06:34:51;;;;;;;3.13;2.90;;;15.20;99.90;;;;;;5053163;28;20425;-70
2022/06/16 06:37:20;;;;;;;3.67;2.47;;;15.30;99.90;;;;;;5052011;28;20433;-70
2022/06/16 06:39:46;;;;;;;9.13;2.80;;;15.30;99.90;;;;;;5052603;28;20437;-70
2022/06/16 06:42:12;;;;;;;4.13;2.70;;;15.40;99.90;;;;;;5052669;28;20397;-69
2022/06/16 06:44:38;;;;;;;9.50;2.87;;;15.40;99.90;;;;;;5054460;28;20412;-72
2022/06/16 06:47:04;;;;;;;5.17;2.70;;;15.50;99.90;;;;;;5056093;28;20859;-71
2022/06/16 06:49:30;;;;;;;3.70;2.87;;;15.50;99.90;;;;;;5056791;28;20203;-70
2022/06/16 06:51:56;;;;;;;3.40;2.50;;;15.50;99.90;;;;;;5056809;28;20917;-69
2022/06/16 06:54:22;;;;;;;3.33;2.70;;;15.60;99.90;;;;;;5056972;28;20210;-70
2022/06/16 06:56:49;;;;;;;4.93;2.83;;;15.70;99.90;;;;;;5056030;28;20746;-69
2022/06/16 06:59:18;;;;;;;8.10;3.13;;;15.80;99.90;;;;;;5056767;28;20392;-72
2022/06/16 07:01:46;;;;;;;6.63;2.93;;;15.70;99.90;;;;;;5037737;28;20404;-72
2022/06/16 07:04:12;;;;;;;4.73;2.40;;;15.70;99.90;;;;;;5056829;28;20401;-72
2022/06/16 07:06:39;;;;;;;2.63;2.33;;;15.60;99.90;;;;;;5055751;28;20912;-70
2022/06/16 07:09:05;;;;;;;2.73;2.40;;;15.60;99.90;;;;;;5056540;28;20421;-72
2022/06/16 07:11:31;;;;;;;4.43;2.30;;;15.70;99.90;;;;;;5056715;28;20436;-70
2022/06/16 07:13:58;;;;;;;2.70;2.30;;;15.80;99.90;;;;;;5056338;28;20484;-72
2022/06/16 07:16:24;;;;;;;2.03;1.83;;;15.90;99.90;;;;;;5056290;28;20175;-71
2022/06/16 07:18:50;;;;;;;2.57;2.37;;;16.00;99.90;;;;;;5055756;28;20479;-69
2022/06/16 07:21:16;;;;;;;4.80;2.40;;;16.20;99.90;;;;;;5055794;28;20393;-70
2022/06/16 07:23:43;;;;;;;8.00;2.20;;;16.30;99.90;;;;;;5056035;28;20945;-71
2022/06/16 07:26:10;;;;;;;2.50;2.30;;;16.50;99.90;;;;;;5056243;28;20167;-70
2022/06/16 07:28:36;;;;;;;3.47;2.20;;;16.70;99.90;;;;;;5055455;28;20455;-72
2022/06/16 07:31:02;;;;;;;2.90;2.20;;;16.90;99.90;;;;;;5056361;28;20405;-71
2022/06/16 07:33:27;;;;;;;3.87;1.83;;;17.20;99.90;;;;;;5056127;28;21023;-69
2022/06/16 07:35:55;;;;;;;2.43;1.83;;;17.40;99.90;;;;;;5056098;28;20189;-71
2022/06/16 07:38:22;;;;;;;3.43;1.70;;;17.50;99.90;;;;;;5055079;28;20278;-71
2022/06/16 07:40:48;;;;;;;2.60;2.00;;;17.60;99.90;;;;;;5055230;28;20393;-70
2022/06/16 07:43:13;;;;;;;2.60;1.80;;;17.70;99.90;;;;;;5055959;28;20451;-69
2022/06/16 07:45:39;;;;;;;2.53;1.80;;;17.80;99.90;;;;;;5056120;28;20174;-72
2022/06/16 07:48:08;;;;;;;2.07;1.97;;;17.80;99.90;;;;;;5054851;28;20187;-72
2022/06/16 07:50:36;;;;;;;4.47;2.07;;;17.90;99.90;;;;;;5055724;28;20416;-69
2022/06/16 07:53:04;;;;;;;2.20;1.80;;;18.00;99.90;;;;;;5055761;28;20547;-71
2022/06/16 07:55:29;;;;;;;3.00;1.77;;;18.00;99.90;;;;;;5055364;28;20459;-69
2022/06/16 07:57:55;;;;;;;2.20;1.50;;;18.00;99.90;;;;;;5054575;28;20492;-70
2022/06/16 08:00:25;;;;;;;2.50;1.70;;;18.00;99.90;;;;;;5054796;28;20528;-72
2022/06/16 08:02:51;;;;;;;1.93;1.83;;;18.00;99.90;;;;;;5055738;28;20261;-69
2022/06/16 08:05:19;;;;;;;3.00;1.80;;;17.90;99.90;;;;;;5055514;28;20559;-69
2022/06/16 08:07:44;;;;;;;2.67;2.03;;;17.90;99.90;;;;;;5054643;28;20167;-71
2022/06/16 08:10:16;;;;;;;2.70;2.30;;;18.00;99.90;;;;;;5055441;28;20417;-69
2022/06/16 08:12:42;;;;;;;4.40;1.63;;;18.00;99.90;;;;;;5055305;28;20190;-72
2022/06/16 08:15:09;;;;;;;4.50;1.70;;;18.20;99.90;;;;;;5055090;28;20398;-71
2022/06/16 08:17:37;;;;;;;2.27;1.63;;;18.20;99.90;;;;;;5053999;28;20401;-72
2022/06/16 08:20:04;;;;;;;4.80;1.63;;;18.20;99.90;;;;;;5055305;28;20421;-72
2022/06/16 08:22:30;;;;;;;1.73;1.63;;;18.20;99.90;;;;;;5055104;28;20457;-71
2022/06/16 08:24:56;;;;;;;1.40;1.30;;;18.00;99.90;;;;;;5055287;28;20448;-72
2022/06/16 08:27:32;;;;;;;5.07;2.50;;;17.90;99.90;;;;;;5054327;28;20432;-71
2022/06/16 08:29:59;;;;;;;2.60;1.53;;;18.10;99.90;;;;;;5055051;28;20474;-69
2022/06/16 08:32:25;;;;;;;3.00;2.00;;;18.30;99.80;;;;;;5054879;28;20397;-69
2022/06/16 08:34:51;;;;;;;2.50;2.10;;;18.50;98.40;;;;;;5054415;28;20493;-69
2022/06/16 08:37:17;;;;;;;6.20;1.73;;;18.70;95.20;;;;;;5054090;28;20197;-69
2022/06/16 08:39:43;;;;;;;3.57;1.43;;;18.80;95.20;;;;;;5055016;28;20970;-70
2022/06/16 08:42:21;;;;;;;2.07;1.67;;;18.80;95.30;;;;;;5037020;28;20932;-69
2022/06/16 08:45:00;;;;;;;2.50;1.93;;;18.80;95.30;;;;;;5054738;28;20487;-71
2022/06/16 08:47:40;;;;;;;1.67;1.50;;;18.90;95.30;;;;;;5053983;28;20405;-71
2022/06/16 08:50:29;;;;;;;2.77;1.90;;;18.90;95.30;;;;;;5054620;28;20483;-71
2022/06/16 08:53:03;;;;;;;2.03;1.30;;;18.90;95.30;;;;;;5053809;28;20548;-71
2022/06/16 08:55:46;;;;;;;1.57;1.47;;;19.00;95.30;;;;;;5054707;28;20917;-70
2022/06/16 08:58:33;;;;;;;3.00;1.40;;;19.10;95.40;;;;;;5035847;28;20782;-72
2022/06/16 09:01:06;;;;;;;3.10;1.67;;;19.30;95.50;;;;;;5054484;28;20420;-70
2022/06/16 09:04:09;;;;;;;1.97;1.40;;;19.30;90.60;;;;;;5054647;28;20451;-70
2022/06/16 09:06:56;;;;;;;3.53;1.43;;;19.60;90.80;;;;;;5052593;28;20409;-72
2022/06/16 09:12:42;;;;;;;1.47;1.27;;;19.90;88.00;;;;;;5053397;28;20500;-72
2022/06/16 09:15:14;;;;;;;3.10;1.50;;;20.20;83.20;;;;;;5054106;28;20398;-69
2022/06/16 09:18:07;;;;;;;1.40;1.30;;;20.40;84.20;;;;;;5053421;28;20393;-72
2022/06/16 09:20:35;;;;;;;1.77;1.20;;;20.40;89.00;;;;;;5054190;28;20809;-72
2022/06/16 09:23:55;;;;;;;1.53;1.33;;;20.40;84.10;;;;;;5054086;28;20412;-71
2022/06/16 09:26:31;;;;;;;1.50;1.40;;;20.30;72.60;;;;;;4972991;28;20805;-71
2022/06/16 09:29:31;;;;;;;1.50;1.33;;;20.30;74.00;;;;;;4973195;28;20775;-70
2022/06/16 09:32:25;;;;;;;4.43;2.20;;;20.50;74.30;;;;;;5043299;28;20758;-71
2022/06/16 09:34:55;;;;;;;1.97;1.47;;;20.60;77.60;;;;;;5053875;28;20410;-72
2022/06/16 09:37:21;;;;;;;3.50;2.33;;;20.80;81.60;;;;;;5052927;28;20728;-70
2022/06/16 09:39:57;;;;;;;3.43;1.97;;;20.90;74.70;;;;;;5053738;28;20420;-72
2022/06/16 09:42:33;;;;;;;2.00;1.40;;;21.10;75.00;;;;;;5053931;28;20165;-71
2022/06/16 09:45:10;;;;;;;2.23;1.60;;;21.40;72.20;;;;;;5053827;28;20741;-72
2022/06/16 09:47:54;;;;;;;4.00;1.63;;;21.80;73.10;;;;;;5052425;28;20396;-70
2022/06/16 09:50:42;;;;;;;2.23;1.27;;;21.70;66.10;;;;;;5053100;28;20413;-69
2022/06/16 09:53:17;;;;;;;2.83;1.30;;;22.00;64.00;;;;;;5053376;28;20448;-70
2022/06/16 09:55:55;;;;;;;2.40;1.60;;;21.90;62.80;;;;;;5053447;28;20918;-71
2022/06/16 09:58:45;;;;;;;2.63;2.20;;;21.70;60.00;;;;;;5052591;28;20475;-69
2022/06/16 10:01:15;;;;;;;2.60;1.70;;;21.30;55.80;;;;;;5053412;28;20414;-71
2022/06/16 10:03:52;;;;;;;4.77;1.90;;;21.10;48.70;;;;;;5053434;28;20759;-71
2022/06/16 10:06:55;;;;;;;2.13;1.93;;;20.80;51.80;;;;;;5053158;28;20409;-68
2022/06/16 10:09:32;;;;;;;2.43;1.50;;;20.90;52.70;;;;;;5052259;28;20437;-71
2022/06/16 10:12:10;;;;;;;2.00;1.47;;;21.60;53.00;;;;;;5053249;28;20413;-72
2022/06/16 10:14:54;;;;;;;3.50;1.80;;;22.30;53.20;;;;;;5053169;28;20452;-71
2022/06/16 10:17:23;;;;;;;2.77;1.43;;;22.90;49.90;;;;;;5052109;28;20547;-70
2022/06/16 10:19:51;;;;;;;3.10;1.93;;;23.00;40.20;;;;;;5052998;28;20420;-68
2022/06/16 10:22:22;;;;;;;1.70;1.57;;;22.80;42.30;;;;;;5053376;28;20401;-69
2022/06/16 10:25:00;;;;;;;1.73;1.23;;;22.20;33.70;;;;;;5053088;28;20882;-72
2022/06/16 10:27:53;;;;;;;2.63;1.67;;;22.20;45.00;;;;;;5052086;28;20401;-72
2022/06/16 10:30:22;;;;;;;3.47;2.00;;;22.80;46.50;;;;;;5051007;28;20778;-72
2022/06/16 10:33:06;;;;;;;2.47;1.53;;;22.90;34.60;;;;;;5035347;28;20448;-68
2022/06/16 10:35:32;;;;;;;3.27;1.47;;;22.50;29.30;;;;;;5052993;28;20499;-72
2022/06/16 10:37:58;;;;;;;2.23;1.10;;;22.20;33.00;;;;;;5051943;28;20405;-72
2022/06/16 10:40:41;;;;;;;2.03;1.47;;;22.90;45.00;;;;;;5052910;28;20406;-71
2022/06/16 10:43:15;;;;;;;2.37;1.00;;;23.70;33.60;;;;;;5052918;28;20178;-69
2022/06/16 10:45:41;;;;;;;1.80;1.20;;;24.40;42.00;;;;;;5052808;28;20445;-72
2022/06/16 10:48:32;;;;;;;1.70;1.20;;;24.50;41.00;;;;;;5051194;28;20451;-72
2022/06/16 10:51:01;;;;;;;3.50;1.30;;;24.10;28.10;;;;;;5052151;28;20421;-69
2022/06/16 10:53:30;;;;;;;2.20;1.27;;;23.60;26.60;;;;;;5052739;28;20933;-69
2022/06/16 10:56:06;;;;;;;5.50;1.93;;;23.40;25.20;;;;;;5052726;28;20992;-68
2022/06/16 10:58:42;;;;;;;2.67;1.50;;;23.20;26.70;;;;;;5051733;28;20425;-69
2022/06/16 11:01:18;;;;;;;3.10;1.40;;;23.40;20.50;;;;;;5052712;28;20397;-72
2022/06/16 11:03:50;;;;;;;4.10;1.67;;;23.20;15.50;;;;;;5052694;28;20451;-69
2022/06/16 11:06:22;;;;;;;4.50;1.87;;;22.90;18.90;;;;;;5051695;28;20894;-70
2022/06/16 11:08:58;;;;;;;2.00;1.43;;;22.60;15.50;;;;;;5051984;28;20448;-72
2022/06/16 11:11:52;;;;;;;2.23;1.37;;;22.20;17.30;;;;;;5052615;28;20931;-72
2022/06/16 11:14:28;;;;;;;4.20;3.00;;;22.20;18.50;;;;;;5052681;28;20492;-72
2022/06/16 11:16:56;;;;;;;1.50;1.10;;;22.70;17.80;;;;;;5051870;28;20458;-68
2022/06/16 11:19:28;;;;;;;3.40;1.20;;;23.60;28.40;;;;;;5034630;28;20869;-72
2022/06/16 11:21:55;;;;;;;1.40;1.23;;;24.60;26.90;;;;;;5051901;28;20443;-72
2022/06/16 11:24:31;;;;;;;2.23;1.30;;;25.00;20.40;;;;;;5051881;28;20413;-73
2022/06/16 11:27:10;;;;;;;1.60;1.40;;;25.00;23.70;;;;;;5051721;28;20417;-69
2022/06/16 11:29:39;;;;;;;2.17;1.10;;;24.70;17.30;;;;;;5052625;28;20417;-68
2022/06/16 11:32:10;;;;;;;1.20;1.10;;;24.20;14.60;;;;;;5056150;28;20413;-69
2022/06/16 11:34:40;;;;;;;4.43;2.13;;;24.10;8.00;;;;;;5056003;28;20884;-68
2022/06/16 11:37:08;;;;;;;2.83;1.20;;;23.60;2.50;;;;;;5055362;28;20932;-71
2022/06/16 11:40:04;;;;;;;2.60;1.13;;;23.00;1.00;;;;;;5056212;28;20925;-69
2022/06/16 11:42:35;;;;;;;1.60;1.13;;;22.70;1.00;;;;;;5055703;28;20405;-68
2022/06/16 11:45:35;;;;;;;1.30;0.90;;;22.80;6.20;;;;;;5037908;28;20847;-71
2022/06/16 11:48:28;;;;;;;3.10;1.20;;;22.80;2.60;;;;;;5054815;28;20417;-70
2022/06/16 11:51:00;;;;;;;2.27;1.10;;;22.70;1.00;;;;;;5056017;28;20491;-71
2022/06/16 11:53:52;;;;;;;1.70;0.93;;;23.10;4.10;;;;;;5055812;28;20657;-68
2022/06/16 11:56:44;;;;;;;2.90;0.90;;;24.60;15.00;;;;;;5037937;28;20413;-70
2022/06/16 11:59:54;;;;;;;2.50;1.53;;;26.00;22.20;;;;;;5051567;28;20448;-68
2022/06/16 12:02:19;;;;;;;2.03;1.47;;;25.40;6.60;;;;;;5055408;28;20453;-67
2022/06/16 12:04:51;;;;;;;2.20;0.93;;;24.50;1.00;;;;;;5054958;28;20437;-75
2022/06/16 12:07:37;;;;;;;5.43;1.47;;;24.90;1.70;;;;;;5054716;28;20532;-74
2022/06/16 12:10:09;;;;;;;2.40;1.07;;;25.80;1.00;;;;;;5055377;28;20436;-75
2022/06/16 12:12:45;;;;;;;1.20;1.10;;;26.10;1.00;;;;;;5055345;28;20397;-69
2022/06/16 12:15:38;;;;;;;2.73;1.00;;;26.60;1.00;;;;;;5055389;28;20400;-71
2022/06/16 12:18:09;;;;;;;1.77;1.10;;;26.70;1.00;;;;;;5054455;28;20433;-71
2022/06/16 12:20:59;;;;;;;1.20;0.90;;;25.70;1.00;;;;;;5055253;28;20405;-66
2022/06/16 12:23:50;;;;;;;1.57;0.87;;;25.00;1.00;;;;;;5054699;28;20551;-69
2022/06/16 12:26:45;;;;;;;1.90;0.93;;;25.00;1.00;;;;;;5055098;28;20453;-70
2022/06/16 12:29:21;;;;;;;3.90;1.17;;;25.90;1.00;;;;;;5021344;28;20441;-70
2022/06/16 12:31:55;;;;;;;3.87;0.87;;;27.00;1.00;;;;;;5037329;28;20853;-73
2022/06/16 12:34:41;;;;;;;1.10;0.80;;;27.70;1.00;;;;;;5055028;28;20523;-71
2022/06/16 12:37:13;;;;;;;1.67;0.80;;;28.00;1.00;;;;;;5054119;28;20463;-72
2022/06/16 12:39:58;;;;;;;3.23;1.63;;;28.00;1.00;;;;;;5037165;28;20456;-70
2022/06/16 12:42:28;;;;;;;1.67;1.13;;;27.30;1.00;;;;;;5052812;28;20492;-72
2022/06/16 12:44:57;;;;;;;2.60;0.70;;;26.70;1.00;;;;;;5054859;28;20429;-69
2022/06/16 12:47:28;;;;;;;2.27;1.10;;;26.10;1.00;;;;;;5053895;28;20405;-70
2022/06/16 12:50:05;;;;;;;1.30;0.83;;;25.20;1.00;;;;;;5054546;28;20499;-72
2022/06/16 12:52:42;;;;;;;2.90;1.10;;;25.10;1.00;;;;;;5054531;28;20416;-73
2022/06/16 12:55:18;;;;;;;1.30;1.00;;;25.70;1.00;;;;;;5036913;28;20417;-72
2022/06/16 12:57:53;;;;;;;2.27;0.90;;;26.10;1.00;;;;;;5053814;28;20441;-70
2022/06/16 13:00:20;;;;;;;8.30;1.10;;;26.30;1.00;;;;;;5054736;28;20451;-70
2022/06/16 13:02:58;;;;;;;1.60;1.20;;;26.40;1.00;;;;;;5053383;28;20416;-72
2022/06/16 13:05:24;;;;;;;2.67;1.50;;;26.00;1.00;;;;;;5054556;28;20431;-70
2022/06/16 13:07:54;;;;;;;2.83;1.30;;;25.40;1.00;;;;;;5053496;28;20424;-72
2022/06/16 13:10:20;;;;;;;1.60;0.90;;;25.80;1.00;;;;;;5054491;28;20424;-70
2022/06/16 13:12:58;;;;;;;1.53;0.90;;;26.90;1.00;;;;;;5054218;28;20589;-70
2022/06/16 13:15:32;;;;;;;1.20;1.10;;;26.60;1.00;;;;;;5054308;28;20401;-69
2022/06/16 13:18:24;;;;;;;1.63;0.90;;;26.40;1.00;;;;;;5053286;28;20805;-73
2022/06/16 13:21:03;;;;;;;2.37;0.87;;;27.50;1.00;;;;;;5053676;28;20487;-71
2022/06/16 13:23:38;;;;;;;1.73;1.17;;;28.50;1.00;;;;;;5053787;28;20409;-73
2022/06/16 13:26:18;;;;;;;2.57;1.10;;;29.10;1.00;;;;;;5054123;28;20401;-70
2022/06/16 13:29:05;;;;;;;4.40;1.07;;;29.60;1.00;;;;;;5053248;28;20500;-73
2022/06/16 13:31:42;;;;;;;1.97;0.83;;;28.60;1.00;;;;;;5054094;28;20405;-70
2022/06/16 13:34:08;;;;;;;1.20;1.00;;;27.20;1.00;;;;;;5053918;28;20518;-73